createdAt,value
2023-03-28T00:00:17.799Z,59.72
2023-03-28T00:03:08.584Z,60.07
2023-03-28T00:05:42.448Z,59.80
2023-03-28T00:08:14.876Z,59.84
2023-03-28T00:10:45.896Z,59.75
2023-03-28T00:13:20.122Z,60.03
2023-03-28T00:15:53.210Z,60.04
2023-03-28T00:18:24.074Z,60.23
2023-03-28T00:20:55.025Z,60.09
2023-03-28T00:23:26.111Z,60.36
2023-03-28T00:25:57.464Z,60.26
2023-03-28T00:28:28.556Z,60.32
2023-03-28T00:31:04.737Z,60.38
2023-03-28T00:33:35.897Z,60.26
2023-03-28T00:36:10.500Z,60.53
2023-03-28T00:38:41.954Z,60.26
2023-03-28T00:41:16.232Z,60.45
2023-03-28T00:43:47.475Z,60.46
2023-03-28T00:46:20.250Z,60.46
2023-03-28T00:48:52.203Z,60.27
2023-03-28T00:51:24.022Z,60.38
2023-03-28T00:53:54.725Z,60.28
2023-03-28T00:56:25.474Z,60.21
2023-03-28T00:58:56.478Z,60.29
2023-03-28T01:01:27.184Z,60.19
2023-03-28T01:04:02.420Z,60.06
2023-03-28T01:06:34.706Z,59.92
2023-03-28T01:09:06.663Z,59.97
2023-03-28T01:11:38.575Z,59.87
2023-03-28T01:14:09.487Z,59.82
2023-03-28T01:16:41.579Z,59.92
2023-03-28T01:19:13.581Z,59.89
2023-03-28T01:22:07.555Z,60.06
2023-03-28T01:24:55.430Z,59.87
2023-03-28T01:27:26.801Z,60.02
2023-03-28T01:30:03.573Z,60.08
2023-03-28T01:32:42.303Z,60.11
2023-03-28T01:35:20.080Z,60.25
2023-03-28T01:37:52.046Z,59.93
2023-03-28T01:40:31.424Z,60.36
2023-03-28T01:43:06.781Z,60.49
2023-03-28T01:45:39.593Z,60.29
2023-03-28T01:48:11.529Z,60.40
2023-03-28T01:50:43.387Z,60.08
2023-03-28T01:53:16.370Z,60.46
2023-03-28T01:55:49.645Z,60.41
2023-03-28T01:58:22.578Z,60.08
2023-03-28T02:00:55.099Z,60.30
2023-03-28T02:03:26.710Z,60.11
2023-03-28T02:05:58.452Z,59.95
2023-03-28T02:08:30.658Z,60.13
2023-03-28T02:11:01.542Z,60.04
2023-03-28T02:13:34.035Z,60.23
2023-03-28T02:16:05.116Z,60.10
2023-03-28T02:18:38.237Z,60.06
2023-03-28T02:21:10.462Z,59.92
2023-03-28T02:23:42.737Z,60.05
2023-03-28T02:26:13.601Z,60.01
2023-03-28T02:28:44.745Z,59.86
2023-03-28T02:31:15.564Z,59.63
2023-03-28T02:33:46.933Z,59.91
2023-03-28T02:36:30.430Z,59.65
2023-03-28T02:39:21.592Z,59.73
2023-03-28T02:41:56.070Z,59.91
2023-03-28T02:44:49.595Z,59.90
2023-03-28T02:47:21.273Z,59.71
2023-03-28T02:49:55.226Z,59.62
2023-03-28T02:52:35.028Z,59.70
2023-03-28T02:55:07.904Z,59.62
2023-03-28T02:57:39.203Z,59.44
2023-03-28T03:00:12.377Z,59.58
2023-03-28T03:02:43.283Z,59.55
2023-03-28T03:05:14.506Z,59.67
2023-03-28T03:07:45.377Z,59.33
2023-03-28T03:10:17.275Z,59.38
2023-03-28T03:12:47.930Z,59.37
2023-03-28T03:15:19.129Z,59.21
2023-03-28T03:17:50.019Z,59.34
2023-03-28T03:20:20.833Z,59.12
2023-03-28T03:22:51.594Z,58.92
2023-03-28T03:25:22.369Z,59.05
2023-03-28T03:27:53.254Z,59.08
2023-03-28T03:30:24.102Z,58.93
2023-03-28T03:32:56.185Z,59.11
2023-03-28T03:35:33.420Z,58.52
2023-03-28T03:38:04.463Z,58.89
2023-03-28T03:40:35.407Z,58.76
2023-03-28T03:43:06.168Z,58.65
2023-03-28T03:45:38.064Z,58.66
2023-03-28T03:48:08.912Z,58.79
2023-03-28T03:50:39.831Z,58.85
2023-03-28T03:53:10.898Z,58.48
2023-03-28T03:55:41.722Z,58.41
2023-03-28T03:58:12.607Z,58.36
2023-03-28T04:00:44.926Z,58.45
2023-03-28T04:03:24.486Z,58.18
2023-03-28T04:05:58.262Z,58.61
2023-03-28T04:08:29.262Z,58.24
2023-03-28T04:11:00.001Z,58.36
2023-03-28T04:13:30.610Z,58.14
2023-03-28T04:16:01.734Z,58.41
2023-03-28T04:18:34.360Z,58.41
2023-03-28T04:21:05.096Z,58.13
2023-03-28T04:23:38.836Z,58.38
2023-03-28T04:26:09.616Z,58.18
2023-03-28T04:28:40.428Z,58.03
2023-03-28T04:31:12.328Z,57.75
2023-03-28T04:33:45.415Z,57.93
2023-03-28T04:36:16.910Z,58.10
2023-03-28T04:38:47.682Z,57.64
2023-03-28T04:41:18.689Z,57.69
2023-03-28T04:43:49.542Z,57.59
2023-03-28T04:46:20.429Z,57.72
2023-03-28T04:48:56.484Z,57.61
2023-03-28T04:51:28.862Z,57.80
2023-03-28T04:53:59.727Z,57.53
2023-03-28T04:56:31.030Z,57.66
2023-03-28T04:59:01.974Z,57.79
2023-03-28T05:01:33.288Z,57.64
2023-03-28T05:04:04.196Z,57.59
2023-03-28T05:06:35.963Z,57.37
2023-03-28T05:09:09.178Z,57.44
2023-03-28T05:11:40.279Z,57.68
2023-03-28T05:14:11.109Z,57.33
2023-03-28T05:16:42.117Z,57.28
2023-03-28T05:19:13.151Z,57.37
2023-03-28T05:21:44.127Z,57.35
2023-03-28T05:24:15.002Z,57.29
2023-03-28T05:26:46.130Z,57.37
2023-03-28T05:29:16.939Z,57.43
2023-03-28T05:31:47.952Z,57.00
2023-03-28T05:34:18.829Z,57.01
2023-03-28T05:36:49.734Z,57.03
2023-03-28T05:39:20.690Z,57.36
2023-03-28T05:41:51.609Z,57.57
2023-03-28T05:44:22.514Z,56.97
2023-03-28T05:46:53.454Z,57.21
2023-03-28T05:49:24.328Z,57.46
2023-03-28T05:51:55.153Z,57.32
2023-03-28T05:54:25.853Z,57.24
2023-03-28T05:56:56.766Z,57.15
2023-03-28T05:59:28.024Z,56.86
2023-03-28T06:01:58.916Z,56.98
2023-03-28T06:04:29.904Z,56.85
2023-03-28T06:07:03.011Z,57.28
2023-03-28T06:09:36.346Z,56.88
2023-03-28T06:12:07.572Z,56.81
2023-03-28T06:14:38.368Z,56.88
2023-03-28T06:17:09.314Z,57.05
2023-03-28T06:19:40.450Z,56.99
2023-03-28T06:22:11.506Z,56.63
2023-03-28T06:24:42.480Z,57.02
2023-03-28T06:27:13.347Z,56.83
2023-03-28T06:29:44.290Z,57.20
2023-03-28T06:32:15.497Z,57.26
2023-03-28T06:34:46.510Z,57.09
2023-03-28T06:37:17.365Z,56.90
2023-03-28T06:39:50.882Z,56.69
2023-03-28T06:42:21.751Z,56.80
2023-03-28T06:44:52.733Z,57.01
2023-03-28T06:47:23.558Z,56.80
2023-03-28T06:49:54.350Z,57.12
2023-03-28T06:52:25.298Z,57.25
2023-03-28T06:54:56.310Z,56.98
2023-03-28T06:57:27.169Z,57.51
2023-03-28T06:59:58.163Z,57.78
2023-03-28T07:02:28.981Z,57.86
2023-03-28T07:04:59.785Z,58.32
2023-03-28T07:07:30.738Z,58.22
2023-03-28T07:10:01.343Z,58.25
2023-03-28T07:12:32.198Z,58.34
2023-03-28T07:15:03.244Z,58.22
2023-03-28T07:17:34.286Z,58.09
2023-03-28T07:20:05.533Z,57.87
2023-03-28T07:22:36.478Z,57.83
2023-03-28T07:25:09.103Z,57.03
2023-03-28T07:27:40.060Z,56.52
2023-03-28T07:30:12.014Z,56.61
2023-03-28T07:32:54.336Z,56.68
2023-03-28T07:35:27.704Z,56.71
2023-03-28T07:37:58.547Z,56.77
2023-03-28T07:40:29.450Z,56.67
2023-03-28T07:43:00.521Z,56.54
2023-03-28T07:45:31.615Z,56.64
2023-03-28T07:48:02.827Z,56.70
2023-03-28T07:50:34.157Z,56.60
2023-03-28T07:53:05.420Z,56.92
2023-03-28T07:58:12.594Z,56.85
2023-03-28T08:00:45.666Z,56.93
2023-03-28T08:03:16.803Z,57.08
2023-03-28T08:05:52.106Z,57.08
2023-03-28T08:08:22.989Z,57.19
2023-03-28T08:10:53.780Z,57.33
2023-03-28T08:13:24.636Z,57.16
2023-03-28T08:15:56.026Z,57.25
2023-03-28T08:18:27.197Z,57.21
2023-03-28T08:21:01.314Z,57.09
2023-03-28T08:23:32.287Z,57.17
2023-03-28T08:26:05.066Z,57.47
2023-03-28T08:28:36.400Z,57.40
2023-03-28T08:31:14.264Z,57.02
2023-03-28T08:33:45.714Z,56.82
2023-03-28T08:36:16.676Z,56.79
2023-03-28T08:38:47.882Z,56.73
2023-03-28T08:41:22.631Z,56.88
2023-03-28T08:43:59.732Z,57.17
2023-03-28T08:46:30.624Z,57.10
2023-03-28T08:49:01.893Z,56.85
2023-03-28T08:51:35.527Z,56.95
2023-03-28T08:54:08.258Z,56.97
2023-03-28T08:56:43.989Z,56.82
2023-03-28T08:59:16.850Z,56.70
2023-03-28T09:01:47.639Z,56.62
2023-03-28T09:04:23.384Z,56.69
2023-03-28T09:06:54.875Z,56.86
2023-03-28T09:09:28.785Z,56.81
2023-03-28T09:12:02.620Z,56.61
2023-03-28T09:14:46.345Z,56.36
2023-03-28T09:17:17.851Z,56.12
2023-03-28T09:19:53.065Z,56.00
2023-03-28T09:22:27.458Z,56.14
2023-03-28T09:25:00.924Z,55.98
2023-03-28T09:27:32.846Z,56.13
2023-03-28T09:30:08.368Z,56.06
2023-03-28T09:32:40.024Z,56.11
2023-03-28T09:35:15.428Z,55.94
2023-03-28T09:37:47.115Z,56.03
2023-03-28T09:40:20.171Z,56.02
2023-03-28T09:42:53.294Z,56.20
2023-03-28T09:45:27.259Z,56.09
2023-03-28T09:47:58.295Z,56.09
2023-03-28T09:50:29.186Z,55.98
2023-03-28T09:53:00.343Z,55.88
2023-03-28T09:55:31.645Z,56.01
2023-03-28T09:58:03.596Z,55.99
2023-03-28T10:00:37.592Z,56.17
2023-03-28T10:03:11.412Z,56.13
2023-03-28T10:05:43.454Z,56.52
2023-03-28T10:08:23.069Z,55.91
2023-03-28T10:10:57.814Z,55.66
2023-03-28T10:13:28.693Z,55.62
2023-03-28T10:16:00.090Z,55.75
2023-03-28T10:18:31.553Z,56.10
2023-03-28T10:21:05.074Z,55.88
2023-03-28T10:23:37.056Z,55.66
2023-03-28T10:26:09.008Z,55.65
2023-03-28T10:28:39.934Z,55.47
2023-03-28T10:31:15.959Z,55.58
2023-03-28T10:33:47.171Z,55.67
2023-03-28T10:36:25.441Z,55.50
2023-03-28T10:38:56.185Z,55.31
2023-03-28T10:41:27.195Z,55.17
2023-03-28T10:43:58.398Z,55.20
2023-03-28T10:46:30.091Z,55.07
2023-03-28T10:49:03.001Z,55.03
2023-03-28T10:51:34.004Z,55.01
2023-03-28T10:54:11.737Z,54.97
2023-03-28T10:56:44.609Z,55.15
2023-03-28T10:59:17.794Z,55.02
2023-03-28T11:01:51.874Z,54.87
2023-03-28T11:04:27.546Z,54.88
2023-03-28T11:06:59.819Z,55.08
2023-03-28T11:09:32.563Z,54.94
2023-03-28T11:12:06.954Z,54.87
2023-03-28T11:14:48.067Z,55.04
2023-03-28T11:17:21.100Z,54.84
2023-03-28T11:19:57.543Z,54.84
2023-03-28T11:22:31.072Z,54.46
2023-03-28T11:25:04.118Z,54.15
2023-03-28T11:27:36.366Z,54.59
2023-03-28T11:30:11.107Z,54.24
2023-03-28T11:32:43.068Z,54.23
2023-03-28T11:35:17.183Z,54.28
2023-03-28T11:37:49.061Z,54.25
2023-03-28T11:40:22.545Z,54.03
2023-03-28T11:42:55.354Z,54.13
2023-03-28T11:45:37.945Z,54.01
2023-03-28T11:48:19.470Z,54.20
2023-03-28T11:50:52.990Z,53.86
2023-03-28T11:53:25.186Z,54.02
2023-03-28T11:55:58.667Z,54.08
2023-03-28T11:58:29.918Z,53.96
2023-03-28T12:01:03.055Z,53.81
2023-03-28T12:03:37.588Z,53.98
2023-03-28T12:06:11.621Z,54.21
2023-03-28T12:08:43.515Z,53.69
2023-03-28T12:11:16.656Z,53.67
2023-03-28T12:13:53.207Z,53.83
2023-03-28T12:16:34.750Z,54.02
2023-03-28T12:19:05.719Z,53.96
2023-03-28T12:21:37.191Z,53.72
2023-03-28T12:24:08.768Z,53.60
2023-03-28T12:26:42.662Z,53.79
2023-03-28T12:29:16.196Z,53.73
2023-03-28T12:31:48.154Z,53.62
2023-03-28T12:34:19.608Z,53.64
2023-03-28T12:36:51.173Z,53.67
2023-03-28T12:39:25.862Z,53.38
2023-03-28T12:41:56.685Z,53.49
2023-03-28T12:44:27.905Z,53.71
2023-03-28T12:47:00.866Z,53.67
2023-03-28T12:49:34.018Z,53.60
2023-03-28T12:52:05.142Z,53.27
2023-03-28T12:54:36.338Z,53.27
2023-03-28T12:57:15.510Z,53.36
2023-03-28T13:00:09.837Z,53.11
2023-03-28T13:02:42.354Z,53.24
2023-03-28T13:05:16.220Z,53.28
2023-03-28T13:07:57.485Z,53.11
2023-03-28T13:10:31.180Z,53.05
2023-03-28T13:13:07.199Z,53.10
2023-03-28T13:15:39.624Z,53.05
2023-03-28T13:18:27.874Z,53.02
2023-03-28T13:20:59.647Z,53.12
2023-03-28T13:23:46.171Z,52.95
2023-03-28T13:26:16.886Z,52.97
2023-03-28T13:28:48.348Z,52.52
2023-03-28T13:31:23.268Z,52.55
2023-03-28T13:33:58.862Z,52.52
2023-03-28T13:36:30.868Z,52.39
2023-03-28T13:39:20.300Z,52.05
2023-03-28T13:42:00.980Z,52.34
2023-03-28T13:44:33.496Z,52.08
2023-03-28T13:47:04.487Z,52.08
2023-03-28T13:49:37.560Z,51.93
2023-03-28T13:52:09.103Z,51.85
2023-03-28T13:54:40.036Z,51.64
2023-03-28T13:57:14.812Z,51.62
2023-03-28T13:59:48.266Z,51.55
2023-03-28T14:02:20.267Z,51.65
2023-03-28T14:04:55.263Z,51.50
2023-03-28T14:07:27.333Z,51.43
2023-03-28T14:09:58.680Z,51.68
2023-03-28T14:12:30.292Z,51.45
2023-03-28T14:15:01.613Z,51.45
2023-03-28T14:17:33.243Z,51.29
2023-03-28T14:20:05.783Z,51.43
2023-03-28T14:22:45.716Z,51.50
2023-03-28T14:25:23.803Z,51.35
2023-03-28T14:27:55.383Z,51.10
2023-03-28T14:30:26.942Z,50.97
2023-03-28T14:33:02.346Z,51.18
2023-03-28T14:35:33.930Z,51.25
2023-03-28T14:38:05.654Z,51.39
2023-03-28T14:40:37.834Z,51.42
2023-03-28T14:43:10.318Z,51.39
2023-03-28T14:45:42.709Z,51.54
2023-03-28T14:48:15.877Z,51.21
2023-03-28T14:50:46.942Z,51.24
2023-03-28T14:53:20.955Z,51.28
2023-03-28T14:55:52.243Z,51.36
2023-03-28T14:58:24.126Z,51.45
2023-03-28T15:00:56.031Z,51.45
2023-03-28T15:03:28.869Z,51.33
2023-03-28T15:05:59.821Z,51.37
2023-03-28T15:08:34.608Z,51.22
2023-03-28T15:11:06.635Z,51.48
2023-03-28T15:13:38.109Z,51.42
2023-03-28T15:16:09.547Z,51.31
2023-03-28T15:18:44.524Z,51.43
2023-03-28T15:21:15.743Z,51.30
2023-03-28T15:23:50.013Z,51.33
2023-03-28T15:26:22.512Z,50.99
2023-03-28T15:28:53.351Z,50.63
2023-03-28T15:31:24.319Z,50.80
2023-03-28T15:33:55.445Z,50.63
2023-03-28T15:36:30.956Z,50.85
2023-03-28T15:39:02.741Z,50.90
2023-03-28T15:41:43.590Z,50.84
2023-03-28T15:44:23.797Z,51.01
2023-03-28T15:46:57.738Z,51.30
2023-03-28T15:49:28.788Z,51.34
2023-03-28T15:52:01.847Z,51.29
2023-03-28T15:54:32.906Z,51.05
2023-03-28T15:57:04.245Z,51.15
2023-03-28T15:59:36.221Z,51.27
2023-03-28T16:02:37.405Z,51.41
2023-03-28T16:05:09.169Z,51.58
2023-03-28T16:07:48.638Z,51.41
2023-03-28T16:10:20.450Z,51.60
2023-03-28T16:12:51.873Z,51.75
2023-03-28T16:15:22.812Z,51.82
2023-03-28T16:17:55.913Z,51.95
2023-03-28T16:20:26.657Z,51.95
2023-03-28T16:22:57.492Z,52.13
2023-03-28T16:25:29.028Z,52.17
2023-03-28T16:28:07.091Z,52.28
2023-03-28T16:30:38.885Z,52.20
2023-03-28T16:33:10.111Z,52.34
2023-03-28T16:35:41.286Z,52.18
2023-03-28T16:38:12.951Z,52.34
2023-03-28T16:40:45.479Z,52.29
2023-03-28T16:43:16.907Z,52.40
2023-03-28T16:45:51.017Z,52.60
2023-03-28T16:48:22.058Z,52.52
2023-03-28T16:50:56.843Z,52.60
2023-03-28T16:53:27.836Z,52.79
2023-03-28T16:55:58.926Z,52.67
2023-03-28T16:58:30.426Z,52.57
2023-03-28T17:01:04.509Z,52.78
2023-03-28T17:03:35.680Z,52.82
2023-03-28T17:06:08.227Z,53.08
2023-03-28T17:08:41.521Z,53.05
2023-03-28T17:11:13.060Z,52.88
2023-03-28T17:13:44.061Z,53.00
2023-03-28T17:16:15.103Z,53.15
2023-03-28T17:18:46.029Z,53.24
2023-03-28T17:21:17.381Z,52.99
2023-03-28T17:23:48.628Z,53.03
2023-03-28T17:26:19.510Z,53.35
2023-03-28T17:28:51.794Z,53.24
2023-03-28T17:31:22.853Z,53.20
2023-03-28T17:33:53.721Z,53.34
2023-03-28T17:36:25.482Z,53.38
2023-03-28T17:38:56.828Z,53.12
2023-03-28T17:41:28.026Z,53.22
2023-03-28T17:44:00.150Z,53.07
2023-03-28T17:46:31.184Z,53.39
2023-03-28T17:49:02.455Z,53.56
2023-03-28T17:51:33.402Z,53.50
2023-03-28T17:54:07.065Z,53.16
2023-03-28T17:56:37.927Z,53.44
2023-03-28T17:59:08.669Z,53.48
2023-03-28T18:01:39.728Z,53.55
2023-03-28T18:04:11.650Z,53.43
2023-03-28T18:06:49.981Z,53.72
2023-03-28T18:09:21.678Z,53.66
2023-03-28T18:11:52.779Z,53.50
2023-03-28T18:14:23.741Z,53.80
2023-03-28T18:16:56.486Z,53.64
2023-03-28T18:19:27.330Z,53.57
2023-03-28T18:21:58.394Z,54.06
2023-03-28T18:24:31.385Z,53.95
2023-03-28T18:27:04.849Z,53.61
2023-03-28T18:29:35.998Z,53.64
2023-03-28T18:32:09.561Z,53.73
2023-03-28T18:34:41.612Z,53.67
2023-03-28T18:37:13.333Z,53.73
2023-03-28T18:39:45.614Z,53.70
2023-03-28T18:42:16.595Z,53.28
2023-03-28T18:44:47.656Z,53.69
2023-03-28T18:47:22.219Z,53.52
2023-03-28T18:49:53.296Z,53.71
2023-03-28T18:52:34.424Z,53.72
2023-03-28T18:55:12.292Z,53.48
2023-03-28T18:57:43.330Z,53.50
2023-03-28T19:00:18.830Z,53.68
2023-03-28T19:02:50.518Z,53.79
2023-03-28T19:05:22.245Z,53.80
2023-03-28T19:07:53.156Z,53.72
2023-03-28T19:10:23.926Z,54.04
2023-03-28T19:12:56.249Z,53.92
2023-03-28T19:15:29.133Z,53.97
2023-03-28T19:18:02.974Z,53.80
2023-03-28T19:20:38.441Z,53.98
2023-03-28T19:23:09.556Z,54.00
2023-03-28T19:25:42.674Z,54.07
2023-03-28T19:28:16.175Z,53.96
2023-03-28T19:30:47.962Z,53.88
2023-03-28T19:33:22.821Z,53.75
2023-03-28T19:35:54.248Z,54.03
2023-03-28T19:38:31.095Z,53.88
2023-03-28T19:41:10.732Z,54.06
2023-03-28T19:43:42.955Z,54.18
2023-03-28T19:46:14.480Z,54.31
2023-03-28T19:48:45.471Z,54.04
2023-03-28T19:51:18.864Z,54.23
2023-03-28T19:53:49.752Z,54.02
2023-03-28T19:56:20.651Z,54.08
2023-03-28T19:58:52.092Z,54.22
2023-03-28T20:01:23.124Z,53.96
2023-03-28T20:03:54.947Z,53.91
2023-03-28T20:06:26.866Z,53.97
2023-03-28T20:08:57.925Z,53.81
2023-03-28T20:11:29.840Z,53.76
2023-03-28T20:14:01.637Z,54.41
2023-03-28T20:16:44.925Z,54.39
2023-03-28T20:19:18.204Z,54.51
2023-03-28T20:21:49.242Z,54.74
2023-03-28T20:24:20.138Z,54.83
2023-03-28T20:26:51.559Z,54.30
2023-03-28T20:29:22.243Z,54.51
2023-03-28T20:31:56.923Z,54.62
2023-03-28T20:34:32.751Z,54.97
2023-03-28T20:37:13.982Z,54.70
2023-03-28T20:39:48.586Z,54.76
2023-03-28T20:42:21.108Z,55.34
2023-03-28T20:44:59.021Z,55.12
2023-03-28T20:47:30.562Z,55.32
2023-03-28T20:50:07.337Z,55.18
2023-03-28T20:52:46.760Z,55.37
2023-03-28T20:55:31.483Z,55.23
2023-03-28T20:58:08.050Z,55.61
2023-03-28T21:00:40.216Z,55.53
2023-03-28T21:03:12.352Z,55.38
2023-03-28T21:05:46.174Z,55.58
2023-03-28T21:08:19.760Z,55.41
2023-03-28T21:10:54.610Z,55.72
2023-03-28T21:13:26.521Z,55.66
2023-03-28T21:15:57.575Z,55.64
2023-03-28T21:18:29.027Z,56.00
2023-03-28T21:21:00.211Z,55.80
2023-03-28T21:23:31.226Z,56.01
2023-03-28T21:26:02.229Z,56.26
2023-03-28T21:28:33.594Z,56.01
2023-03-28T21:31:05.191Z,56.26
2023-03-28T21:33:36.715Z,56.18
2023-03-28T21:36:08.501Z,56.18
2023-03-28T21:38:39.303Z,56.24
2023-03-28T21:41:11.407Z,56.52
2023-03-28T21:43:42.397Z,56.67
2023-03-28T21:46:13.824Z,56.81
2023-03-28T21:48:48.278Z,57.05
2023-03-28T21:51:19.577Z,56.90
2023-03-28T21:53:50.510Z,56.92
2023-03-28T21:56:21.532Z,56.78
2023-03-28T21:58:52.621Z,56.86
2023-03-28T22:01:23.530Z,56.85
2023-03-28T22:03:54.469Z,57.25
2023-03-28T22:06:26.361Z,57.02
2023-03-28T22:08:57.236Z,57.22
2023-03-28T22:11:30.874Z,57.15
2023-03-28T22:14:05.495Z,57.35
2023-03-28T22:16:37.656Z,57.22
2023-03-28T22:19:09.844Z,57.19
2023-03-28T22:21:40.844Z,57.19
2023-03-28T22:24:13.424Z,57.30
2023-03-28T22:26:45.131Z,57.28
2023-03-28T22:29:17.185Z,57.46
2023-03-28T22:31:48.046Z,57.43
2023-03-28T22:34:21.029Z,57.37
2023-03-28T22:36:53.581Z,57.36
2023-03-28T22:39:25.400Z,57.44
2023-03-28T22:41:56.327Z,57.21
2023-03-28T22:44:28.096Z,57.40
2023-03-28T22:47:02.492Z,57.42
2023-03-28T22:49:34.225Z,57.47
2023-03-28T22:52:06.455Z,57.35
2023-03-28T22:54:37.559Z,57.28
2023-03-28T22:57:08.557Z,57.15
2023-03-28T22:59:40.190Z,57.50
2023-03-28T23:02:11.610Z,57.51
2023-03-28T23:04:42.505Z,57.60
2023-03-28T23:07:13.696Z,57.27
2023-03-28T23:09:44.524Z,57.43
2023-03-28T23:12:15.412Z,57.34
2023-03-28T23:14:47.760Z,57.13
2023-03-28T23:17:19.198Z,57.02
2023-03-28T23:19:50.311Z,56.96
2023-03-28T23:22:21.688Z,57.28
2023-03-28T23:24:52.477Z,57.29
2023-03-28T23:27:23.301Z,56.95
2023-03-28T23:29:54.127Z,56.91
2023-03-28T23:32:25.024Z,56.75
2023-03-28T23:34:55.819Z,56.61
2023-03-28T23:37:27.629Z,56.71
2023-03-28T23:39:58.664Z,56.69
2023-03-28T23:42:29.607Z,56.29
2023-03-28T23:45:00.532Z,56.01
2023-03-28T23:47:31.237Z,55.91
2023-03-28T23:50:02.235Z,56.05
2023-03-28T23:52:33.021Z,55.82
2023-03-28T23:55:03.976Z,56.21
2023-03-28T23:57:34.850Z,56.14
